sensor_id;sensor_type;location;lat;lon;timestamp;P1;durP1;ratioP1;P2;durP2;ratioP2
63965;SDS011;50151;52.030;5.350;2023-04-03T10:11:56;1.83;;;0.30;;
63965;SDS011;50151;52.030;5.350;2023-04-03T10:14:33;1.92;;;0.30;;
63965;SDS011;50151;52.030;5.350;2023-04-03T10:22:21;0.70;;;0.40;;
63965;SDS011;50151;52.030;5.350;2023-04-03T10:27:59;0.82;;;0.30;;
63965;SDS011;50151;52.030;5.350;2023-04-03T10:30:41;3.03;;;0.43;;
63965;SDS011;50151;52.030;5.350;2023-04-03T10:33:27;1.05;;;0.28;;
63965;SDS011;50151;52.030;5.350;2023-04-03T10:41:45;0.93;;;0.40;;
63965;SDS011;50151;52.030;5.350;2023-04-03T10:44:55;0.38;;;0.30;;
63965;SDS011;50151;52.030;5.350;2023-04-03T10:47:31;1.88;;;0.50;;
63965;SDS011;50151;52.030;5.350;2023-04-03T10:55:55;0.57;;;0.17;;
63965;SDS011;50151;52.030;5.350;2023-04-03T10:58:40;0.93;;;0.40;;
63965;SDS011;50151;52.030;5.350;2023-04-03T11:01:11;0.55;;;0.38;;
63965;SDS011;50151;52.030;5.350;2023-04-03T11:03:43;0.88;;;0.50;;
63965;SDS011;50151;52.030;5.350;2023-04-03T11:06:14;1.58;;;0.43;;
63965;SDS011;50151;52.030;5.350;2023-04-03T11:11:22;1.55;;;0.40;;
63965;SDS011;50151;52.030;5.350;2023-04-03T11:14:14;0.75;;;0.47;;
63965;SDS011;50151;52.030;5.350;2023-04-03T11:19:20;1.08;;;0.50;;
63965;SDS011;50151;52.030;5.350;2023-04-03T11:21:56;4.57;;;0.70;;
63965;SDS011;50151;52.030;5.350;2023-04-03T11:24:27;2.67;;;0.75;;
63965;SDS011;50151;52.030;5.350;2023-04-03T11:26:57;2.08;;;0.50;;
63965;SDS011;50151;52.030;5.350;2023-04-03T11:29:34;1.40;;;0.65;;
63965;SDS011;50151;52.030;5.350;2023-04-03T11:34:47;1.48;;;0.63;;
63965;SDS011;50151;52.030;5.350;2023-04-03T11:39:54;1.02;;;0.57;;
63965;SDS011;50151;52.030;5.350;2023-04-03T11:47:51;1.40;;;0.80;;
63965;SDS011;50151;52.030;5.350;2023-04-03T12:05:50;0.60;;;0.38;;
63965;SDS011;50151;52.030;5.350;2023-04-03T12:08:26;1.52;;;0.40;;
63965;SDS011;50151;52.030;5.350;2023-04-03T12:22:05;2.65;;;0.60;;
63965;SDS011;50151;52.030;5.350;2023-04-03T12:26:51;1.60;;;0.52;;
63965;SDS011;50151;52.030;5.350;2023-04-03T12:29:38;1.58;;;0.63;;
63965;SDS011;50151;52.030;5.350;2023-04-03T12:35:27;1.42;;;0.60;;
63965;SDS011;50151;52.030;5.350;2023-04-03T12:38:37;1.45;;;0.50;;
63965;SDS011;50151;52.030;5.350;2023-04-03T12:44:15;1.60;;;0.60;;
63965;SDS011;50151;52.030;5.350;2023-04-03T12:46:45;1.77;;;0.70;;
63965;SDS011;50151;52.030;5.350;2023-04-03T12:49:18;1.05;;;0.52;;
63965;SDS011;50151;52.030;5.350;2023-04-03T12:51:49;2.75;;;0.77;;
63965;SDS011;50151;52.030;5.350;2023-04-03T12:54:21;1.55;;;0.65;;
63965;SDS011;50151;52.030;5.350;2023-04-03T12:57:09;0.43;;;0.43;;
63965;SDS011;50151;52.030;5.350;2023-04-03T12:59:37;3.05;;;0.98;;
63965;SDS011;50151;52.030;5.350;2023-04-03T13:02:10;3.45;;;1.20;;
63965;SDS011;50151;52.030;5.350;2023-04-03T13:04:50;4.25;;;0.82;;
63965;SDS011;50151;52.030;5.350;2023-04-03T13:07:25;3.13;;;0.80;;
63965;SDS011;50151;52.030;5.350;2023-04-03T13:12:34;1.60;;;0.52;;
63965;SDS011;50151;52.030;5.350;2023-04-03T13:15:03;2.22;;;0.80;;
63965;SDS011;50151;52.030;5.350;2023-04-03T13:17:40;2.63;;;0.90;;
63965;SDS011;50151;52.030;5.350;2023-04-03T13:20:18;1.17;;;0.68;;
63965;SDS011;50151;52.030;5.350;2023-04-03T13:22:56;2.28;;;0.50;;
63965;SDS011;50151;52.030;5.350;2023-04-03T13:25:35;1.15;;;0.70;;
63965;SDS011;50151;52.030;5.350;2023-04-03T13:28:06;2.67;;;0.90;;
63965;SDS011;50151;52.030;5.350;2023-04-03T13:30:39;1.10;;;0.38;;
63965;SDS011;50151;52.030;5.350;2023-04-03T13:33:24;1.63;;;0.90;;
63965;SDS011;50151;52.030;5.350;2023-04-03T13:36:00;1.67;;;1.00;;
63965;SDS011;50151;52.030;5.350;2023-04-03T13:38:34;1.48;;;0.70;;
63965;SDS011;50151;52.030;5.350;2023-04-03T13:41:20;2.63;;;0.90;;
63965;SDS011;50151;52.030;5.350;2023-04-03T13:43:51;3.05;;;1.00;;
63965;SDS011;50151;52.030;5.350;2023-04-03T13:46:26;1.55;;;0.90;;
63965;SDS011;50151;52.030;5.350;2023-04-03T13:48:54;2.25;;;1.00;;
63965;SDS011;50151;52.030;5.350;2023-04-03T13:51:25;1.65;;;0.75;;
63965;SDS011;50151;52.030;5.350;2023-04-03T13:59:20;2.25;;;0.80;;
63965;SDS011;50151;52.030;5.350;2023-04-03T14:07:10;1.67;;;0.73;;
63965;SDS011;50151;52.030;5.350;2023-04-03T14:09:38;2.13;;;0.70;;
63965;SDS011;50151;52.030;5.350;2023-04-03T14:12:12;2.28;;;0.88;;
63965;SDS011;50151;52.030;5.350;2023-04-03T14:14:56;4.43;;;1.10;;
63965;SDS011;50151;52.030;5.350;2023-04-03T14:17:24;1.95;;;0.75;;
63965;SDS011;50151;52.030;5.350;2023-04-03T14:19:53;1.63;;;0.70;;
63965;SDS011;50151;52.030;5.350;2023-04-03T14:22:22;2.70;;;1.00;;
63965;SDS011;50151;52.030;5.350;2023-04-03T14:27:29;2.13;;;0.70;;
63965;SDS011;50151;52.030;5.350;2023-04-03T14:30:02;2.53;;;0.85;;
63965;SDS011;50151;52.030;5.350;2023-04-03T14:32:30;1.35;;;0.88;;
63965;SDS011;50151;52.030;5.350;2023-04-03T14:34:58;5.25;;;1.02;;
63965;SDS011;50151;52.030;5.350;2023-04-03T14:37:26;1.58;;;0.88;;
63965;SDS011;50151;52.030;5.350;2023-04-03T14:39:56;3.53;;;1.10;;
63965;SDS011;50151;52.030;5.350;2023-04-03T14:42:26;4.65;;;1.00;;
63965;SDS011;50151;52.030;5.350;2023-04-03T14:44:57;2.78;;;1.10;;
63965;SDS011;50151;52.030;5.350;2023-04-03T14:47:26;4.13;;;1.30;;
63965;SDS011;50151;52.030;5.350;2023-04-03T14:49:57;4.80;;;0.90;;
63965;SDS011;50151;52.030;5.350;2023-04-03T14:52:27;3.38;;;1.00;;
63965;SDS011;50151;52.030;5.350;2023-04-03T14:54:59;2.00;;;0.90;;
63965;SDS011;50151;52.030;5.350;2023-04-03T14:57:27;2.28;;;1.10;;
63965;SDS011;50151;52.030;5.350;2023-04-03T14:59:55;4.82;;;1.13;;
63965;SDS011;50151;52.030;5.350;2023-04-03T15:02:27;4.00;;;1.20;;
63965;SDS011;50151;52.030;5.350;2023-04-03T15:04:58;1.80;;;0.80;;
63965;SDS011;50151;52.030;5.350;2023-04-03T15:07:27;2.45;;;1.20;;
63965;SDS011;50151;52.030;5.350;2023-04-03T15:09:56;4.68;;;1.00;;
63965;SDS011;50151;52.030;5.350;2023-04-03T15:12:24;4.68;;;0.95;;
63965;SDS011;50151;52.030;5.350;2023-04-03T15:14:51;4.00;;;0.90;;
63965;SDS011;50151;52.030;5.350;2023-04-03T15:17:28;4.07;;;1.00;;
63965;SDS011;50151;52.030;5.350;2023-04-03T15:19:54;2.70;;;1.25;;
63965;SDS011;50151;52.030;5.350;2023-04-03T15:22:22;3.30;;;1.10;;
63965;SDS011;50151;52.030;5.350;2023-04-03T15:24:48;3.50;;;1.30;;
63965;SDS011;50151;52.030;5.350;2023-04-03T15:27:15;3.30;;;1.40;;
63965;SDS011;50151;52.030;5.350;2023-04-03T15:29:42;5.60;;;1.15;;
63965;SDS011;50151;52.030;5.350;2023-04-03T15:32:11;3.92;;;1.00;;
63965;SDS011;50151;52.030;5.350;2023-04-03T15:34:38;3.20;;;1.20;;
63965;SDS011;50151;52.030;5.350;2023-04-03T15:37:06;6.32;;;1.25;;
63965;SDS011;50151;52.030;5.350;2023-04-03T15:39:32;2.20;;;1.13;;
63965;SDS011;50151;52.030;5.350;2023-04-03T15:41:59;3.42;;;1.27;;
63965;SDS011;50151;52.030;5.350;2023-04-03T15:44:32;2.15;;;1.05;;
63965;SDS011;50151;52.030;5.350;2023-04-03T15:47:00;3.85;;;1.17;;
63965;SDS011;50151;52.030;5.350;2023-04-03T15:49:27;3.13;;;1.20;;
63965;SDS011;50151;52.030;5.350;2023-04-03T15:51:54;4.63;;;1.60;;
63965;SDS011;50151;52.030;5.350;2023-04-03T15:54:21;2.83;;;1.13;;
63965;SDS011;50151;52.030;5.350;2023-04-03T15:56:49;3.20;;;1.27;;
63965;SDS011;50151;52.030;5.350;2023-04-03T15:59:16;6.20;;;1.30;;
63965;SDS011;50151;52.030;5.350;2023-04-03T16:01:43;3.25;;;1.60;;
63965;SDS011;50151;52.030;5.350;2023-04-03T16:04:11;4.32;;;1.60;;
63965;SDS011;50151;52.030;5.350;2023-04-03T16:06:40;5.63;;;1.55;;
63965;SDS011;50151;52.030;5.350;2023-04-03T16:09:07;2.38;;;1.10;;
63965;SDS011;50151;52.030;5.350;2023-04-03T16:11:35;5.70;;;1.52;;
63965;SDS011;50151;52.030;5.350;2023-04-03T16:14:05;3.40;;;1.40;;
63965;SDS011;50151;52.030;5.350;2023-04-03T16:16:33;5.85;;;1.48;;
63965;SDS011;50151;52.030;5.350;2023-04-03T16:19:01;3.65;;;1.40;;
63965;SDS011;50151;52.030;5.350;2023-04-03T16:21:28;4.03;;;1.38;;
63965;SDS011;50151;52.030;5.350;2023-04-03T16:23:56;3.10;;;1.20;;
63965;SDS011;50151;52.030;5.350;2023-04-03T16:26:24;2.47;;;0.88;;
63965;SDS011;50151;52.030;5.350;2023-04-03T16:28:51;4.15;;;1.33;;
63965;SDS011;50151;52.030;5.350;2023-04-03T16:31:19;5.82;;;1.60;;
63965;SDS011;50151;52.030;5.350;2023-04-03T16:33:46;2.85;;;1.35;;
63965;SDS011;50151;52.030;5.350;2023-04-03T16:36:13;2.38;;;1.08;;
63965;SDS011;50151;52.030;5.350;2023-04-03T16:38:40;5.30;;;1.65;;
63965;SDS011;50151;52.030;5.350;2023-04-03T16:41:07;4.00;;;1.20;;
63965;SDS011;50151;52.030;5.350;2023-04-03T16:43:34;3.35;;;1.50;;
63965;SDS011;50151;52.030;5.350;2023-04-03T16:46:01;4.88;;;2.05;;
63965;SDS011;50151;52.030;5.350;2023-04-03T16:48:29;4.30;;;1.20;;
63965;SDS011;50151;52.030;5.350;2023-04-03T16:50:56;4.07;;;1.20;;
63965;SDS011;50151;52.030;5.350;2023-04-03T16:53:23;6.13;;;1.80;;
63965;SDS011;50151;52.030;5.350;2023-04-03T16:55:50;7.32;;;1.67;;
63965;SDS011;50151;52.030;5.350;2023-04-03T16:58:17;3.30;;;1.40;;
63965;SDS011;50151;52.030;5.350;2023-04-03T17:00:47;5.53;;;1.30;;
63965;SDS011;50151;52.030;5.350;2023-04-03T17:03:14;5.00;;;1.40;;
63965;SDS011;50151;52.030;5.350;2023-04-03T17:05:41;4.57;;;1.55;;
63965;SDS011;50151;52.030;5.350;2023-04-03T17:08:09;3.55;;;1.05;;
63965;SDS011;50151;52.030;5.350;2023-04-03T17:10:36;4.93;;;1.20;;
63965;SDS011;50151;52.030;5.350;2023-04-03T17:13:03;4.03;;;1.10;;
63965;SDS011;50151;52.030;5.350;2023-04-03T17:15:30;5.18;;;1.27;;
63965;SDS011;50151;52.030;5.350;2023-04-03T17:17:57;2.70;;;1.20;;
63965;SDS011;50151;52.030;5.350;2023-04-03T17:20:24;3.58;;;1.25;;
63965;SDS011;50151;52.030;5.350;2023-04-03T17:22:51;3.05;;;1.23;;
63965;SDS011;50151;52.030;5.350;2023-04-03T17:25:18;2.35;;;1.13;;
63965;SDS011;50151;52.030;5.350;2023-04-03T17:27:45;4.38;;;1.23;;
63965;SDS011;50151;52.030;5.350;2023-04-03T17:30:12;7.63;;;2.42;;
63965;SDS011;50151;52.030;5.350;2023-04-03T17:32:39;3.60;;;1.35;;
63965;SDS011;50151;52.030;5.350;2023-04-03T17:35:06;3.67;;;1.23;;
63965;SDS011;50151;52.030;5.350;2023-04-03T17:37:36;6.03;;;1.45;;
63965;SDS011;50151;52.030;5.350;2023-04-03T17:40:02;3.25;;;1.23;;
63965;SDS011;50151;52.030;5.350;2023-04-03T17:42:29;3.67;;;1.40;;
63965;SDS011;50151;52.030;5.350;2023-04-03T17:44:57;3.03;;;1.10;;
63965;SDS011;50151;52.030;5.350;2023-04-03T17:47:26;3.65;;;1.35;;
63965;SDS011;50151;52.030;5.350;2023-04-03T17:49:53;4.43;;;1.33;;
63965;SDS011;50151;52.030;5.350;2023-04-03T17:52:20;5.07;;;1.58;;
63965;SDS011;50151;52.030;5.350;2023-04-03T17:54:50;3.53;;;1.08;;
63965;SDS011;50151;52.030;5.350;2023-04-03T17:57:17;3.67;;;1.30;;
63965;SDS011;50151;52.030;5.350;2023-04-03T17:59:44;2.17;;;1.25;;
63965;SDS011;50151;52.030;5.350;2023-04-03T18:02:11;3.75;;;1.25;;
63965;SDS011;50151;52.030;5.350;2023-04-03T18:04:38;2.63;;;1.35;;
63965;SDS011;50151;52.030;5.350;2023-04-03T18:07:08;2.72;;;1.30;;
63965;SDS011;50151;52.030;5.350;2023-04-03T18:09:35;5.30;;;1.48;;
63965;SDS011;50151;52.030;5.350;2023-04-03T18:12:08;3.95;;;1.50;;
63965;SDS011;50151;52.030;5.350;2023-04-03T18:14:36;3.35;;;1.35;;
63965;SDS011;50151;52.030;5.350;2023-04-03T18:17:03;2.65;;;1.20;;
63965;SDS011;50151;52.030;5.350;2023-04-03T18:19:30;6.75;;;1.48;;
63965;SDS011;50151;52.030;5.350;2023-04-03T18:22:05;3.00;;;1.10;;
63965;SDS011;50151;52.030;5.350;2023-04-03T18:24:37;8.85;;;1.40;;
63965;SDS011;50151;52.030;5.350;2023-04-03T18:27:04;3.47;;;1.08;;
63965;SDS011;50151;52.030;5.350;2023-04-03T18:29:36;3.92;;;1.40;;
63965;SDS011;50151;52.030;5.350;2023-04-03T18:32:04;3.58;;;1.20;;
63965;SDS011;50151;52.030;5.350;2023-04-03T18:34:32;4.07;;;1.60;;
63965;SDS011;50151;52.030;5.350;2023-04-03T18:36:59;6.25;;;1.27;;
63965;SDS011;50151;52.030;5.350;2023-04-03T18:39:28;2.65;;;1.00;;
63965;SDS011;50151;52.030;5.350;2023-04-03T18:41:55;4.28;;;1.23;;
63965;SDS011;50151;52.030;5.350;2023-04-03T18:44:24;3.88;;;1.40;;
63965;SDS011;50151;52.030;5.350;2023-04-03T18:46:53;2.58;;;1.63;;
63965;SDS011;50151;52.030;5.350;2023-04-03T18:49:21;3.05;;;1.15;;
63965;SDS011;50151;52.030;5.350;2023-04-03T18:51:49;3.80;;;1.13;;
63965;SDS011;50151;52.030;5.350;2023-04-03T18:54:16;3.47;;;1.20;;
63965;SDS011;50151;52.030;5.350;2023-04-03T18:56:43;3.97;;;1.33;;
63965;SDS011;50151;52.030;5.350;2023-04-03T18:59:12;4.03;;;1.30;;
63965;SDS011;50151;52.030;5.350;2023-04-03T19:01:39;6.25;;;1.73;;
63965;SDS011;50151;52.030;5.350;2023-04-03T19:04:08;3.03;;;1.20;;
63965;SDS011;50151;52.030;5.350;2023-04-03T19:06:35;2.60;;;1.15;;
63965;SDS011;50151;52.030;5.350;2023-04-03T19:09:03;3.17;;;1.38;;
63965;SDS011;50151;52.030;5.350;2023-04-03T19:11:34;2.72;;;1.10;;
63965;SDS011;50151;52.030;5.350;2023-04-03T19:14:01;3.70;;;1.50;;
63965;SDS011;50151;52.030;5.350;2023-04-03T19:16:42;3.67;;;1.40;;
63965;SDS011;50151;52.030;5.350;2023-04-03T19:19:11;3.50;;;1.40;;
63965;SDS011;50151;52.030;5.350;2023-04-03T19:21:39;3.70;;;1.30;;
63965;SDS011;50151;52.030;5.350;2023-04-03T19:24:10;5.20;;;1.67;;
63965;SDS011;50151;52.030;5.350;2023-04-03T19:26:38;4.30;;;1.60;;
63965;SDS011;50151;52.030;5.350;2023-04-03T19:29:06;5.60;;;1.60;;
63965;SDS011;50151;52.030;5.350;2023-04-03T19:31:36;5.82;;;1.50;;
63965;SDS011;50151;52.030;5.350;2023-04-03T19:34:03;2.08;;;1.30;;
63965;SDS011;50151;52.030;5.350;2023-04-03T19:36:31;4.20;;;1.67;;
63965;SDS011;50151;52.030;5.350;2023-04-03T19:38:59;5.32;;;1.83;;
63965;SDS011;50151;52.030;5.350;2023-04-03T19:41:26;8.27;;;2.40;;
63965;SDS011;50151;52.030;5.350;2023-04-03T19:43:55;4.10;;;1.88;;
63965;SDS011;50151;52.030;5.350;2023-04-03T19:46:26;6.03;;;1.55;;
63965;SDS011;50151;52.030;5.350;2023-04-03T19:48:54;6.10;;;1.98;;
63965;SDS011;50151;52.030;5.350;2023-04-03T19:51:21;4.47;;;1.95;;
63965;SDS011;50151;52.030;5.350;2023-04-03T19:53:48;5.90;;;1.77;;
63965;SDS011;50151;52.030;5.350;2023-04-03T19:56:15;4.00;;;1.60;;
63965;SDS011;50151;52.030;5.350;2023-04-03T19:58:42;6.90;;;1.70;;
63965;SDS011;50151;52.030;5.350;2023-04-03T20:01:09;3.42;;;1.27;;
63965;SDS011;50151;52.030;5.350;2023-04-03T20:03:36;6.57;;;1.50;;
63965;SDS011;50151;52.030;5.350;2023-04-03T20:06:03;4.97;;;1.50;;
63965;SDS011;50151;52.030;5.350;2023-04-03T20:08:30;3.65;;;1.40;;
63965;SDS011;50151;52.030;5.350;2023-04-03T20:10:57;4.65;;;1.60;;
63965;SDS011;50151;52.030;5.350;2023-04-03T20:13:24;6.47;;;1.67;;
63965;SDS011;50151;52.030;5.350;2023-04-03T20:15:50;2.22;;;1.33;;
63965;SDS011;50151;52.030;5.350;2023-04-03T20:18:19;2.42;;;1.38;;
63965;SDS011;50151;52.030;5.350;2023-04-03T20:20:56;5.07;;;1.45;;
63965;SDS011;50151;52.030;5.350;2023-04-03T20:23:27;3.85;;;1.33;;
63965;SDS011;50151;52.030;5.350;2023-04-03T20:25:55;4.55;;;1.30;;
63965;SDS011;50151;52.030;5.350;2023-04-03T20:28:35;5.55;;;1.63;;
63965;SDS011;50151;52.030;5.350;2023-04-03T20:31:03;3.33;;;1.50;;
63965;SDS011;50151;52.030;5.350;2023-04-03T20:33:30;4.90;;;1.60;;
63965;SDS011;50151;52.030;5.350;2023-04-03T20:35:57;4.35;;;1.92;;
63965;SDS011;50151;52.030;5.350;2023-04-03T20:38:24;7.35;;;1.98;;
63965;SDS011;50151;52.030;5.350;2023-04-03T20:40:51;4.78;;;1.83;;
63965;SDS011;50151;52.030;5.350;2023-04-03T20:43:17;5.93;;;1.67;;
63965;SDS011;50151;52.030;5.350;2023-04-03T20:45:46;4.65;;;1.92;;
63965;SDS011;50151;52.030;5.350;2023-04-03T20:48:14;6.30;;;1.60;;
63965;SDS011;50151;52.030;5.350;2023-04-03T20:50:42;5.55;;;1.70;;
63965;SDS011;50151;52.030;5.350;2023-04-03T20:53:11;5.10;;;1.65;;
63965;SDS011;50151;52.030;5.350;2023-04-03T20:55:38;6.63;;;1.42;;
63965;SDS011;50151;52.030;5.350;2023-04-03T20:58:05;3.70;;;1.70;;
63965;SDS011;50151;52.030;5.350;2023-04-03T21:00:31;5.30;;;1.35;;
63965;SDS011;50151;52.030;5.350;2023-04-03T21:02:58;7.20;;;1.73;;
63965;SDS011;50151;52.030;5.350;2023-04-03T21:05:26;5.97;;;1.58;;
63965;SDS011;50151;52.030;5.350;2023-04-03T21:19:37;3.17;;;1.45;;
63965;SDS011;50151;52.030;5.350;2023-04-03T21:22:11;6.75;;;1.75;;
63965;SDS011;50151;52.030;5.350;2023-04-03T21:24:39;5.63;;;1.98;;
63965;SDS011;50151;52.030;5.350;2023-04-03T21:27:06;3.83;;;1.60;;
63965;SDS011;50151;52.030;5.350;2023-04-03T21:29:33;8.15;;;2.05;;
63965;SDS011;50151;52.030;5.350;2023-04-03T21:32:00;5.55;;;1.75;;
63965;SDS011;50151;52.030;5.350;2023-04-03T21:34:27;6.50;;;1.67;;
63965;SDS011;50151;52.030;5.350;2023-04-03T21:37:04;5.50;;;1.92;;
63965;SDS011;50151;52.030;5.350;2023-04-03T21:39:33;4.80;;;2.10;;
63965;SDS011;50151;52.030;5.350;2023-04-03T21:42:01;4.30;;;1.95;;
63965;SDS011;50151;52.030;5.350;2023-04-03T21:44:27;5.43;;;2.10;;
63965;SDS011;50151;52.030;5.350;2023-04-03T21:46:54;5.78;;;1.90;;
63965;SDS011;50151;52.030;5.350;2023-04-03T21:49:22;4.88;;;2.05;;
63965;SDS011;50151;52.030;5.350;2023-04-03T21:51:49;3.72;;;2.15;;
63965;SDS011;50151;52.030;5.350;2023-04-03T21:54:17;3.50;;;1.85;;
63965;SDS011;50151;52.030;5.350;2023-04-03T21:56:44;6.40;;;2.03;;
63965;SDS011;50151;52.030;5.350;2023-04-03T21:59:13;6.30;;;2.17;;
63965;SDS011;50151;52.030;5.350;2023-04-03T22:01:41;3.28;;;1.90;;
63965;SDS011;50151;52.030;5.350;2023-04-03T22:04:07;3.08;;;1.95;;
63965;SDS011;50151;52.030;5.350;2023-04-03T22:06:34;6.43;;;2.50;;
63965;SDS011;50151;52.030;5.350;2023-04-03T22:09:02;5.95;;;2.17;;
63965;SDS011;50151;52.030;5.350;2023-04-03T22:11:29;5.80;;;2.40;;
63965;SDS011;50151;52.030;5.350;2023-04-03T22:13:56;4.72;;;2.30;;
63965;SDS011;50151;52.030;5.350;2023-04-03T22:16:23;6.65;;;2.72;;
63965;SDS011;50151;52.030;5.350;2023-04-03T22:18:50;4.60;;;2.13;;
63965;SDS011;50151;52.030;5.350;2023-04-03T22:21:18;4.32;;;2.30;;
63965;SDS011;50151;52.030;5.350;2023-04-03T22:23:45;5.57;;;2.90;;
63965;SDS011;50151;52.030;5.350;2023-04-03T22:26:12;4.85;;;2.30;;
63965;SDS011;50151;52.030;5.350;2023-04-03T22:28:40;7.72;;;2.55;;
63965;SDS011;50151;52.030;5.350;2023-04-03T22:31:11;6.40;;;2.65;;
63965;SDS011;50151;52.030;5.350;2023-04-03T22:33:40;4.03;;;2.60;;
63965;SDS011;50151;52.030;5.350;2023-04-03T22:36:08;4.22;;;2.58;;
63965;SDS011;50151;52.030;5.350;2023-04-03T22:38:37;6.07;;;2.42;;
63965;SDS011;50151;52.030;5.350;2023-04-03T22:41:04;7.80;;;2.88;;
63965;SDS011;50151;52.030;5.350;2023-04-03T22:43:33;5.57;;;2.63;;
63965;SDS011;50151;52.030;5.350;2023-04-03T22:46:02;5.70;;;2.50;;
63965;SDS011;50151;52.030;5.350;2023-04-03T22:48:30;8.25;;;3.40;;
63965;SDS011;50151;52.030;5.350;2023-04-03T22:50:57;5.43;;;2.38;;
63965;SDS011;50151;52.030;5.350;2023-04-03T22:53:27;6.50;;;2.90;;
63965;SDS011;50151;52.030;5.350;2023-04-03T22:56:01;7.68;;;2.80;;
63965;SDS011;50151;52.030;5.350;2023-04-03T22:58:29;10.13;;;2.80;;
63965;SDS011;50151;52.030;5.350;2023-04-03T23:01:03;5.10;;;2.58;;
63965;SDS011;50151;52.030;5.350;2023-04-03T23:03:32;7.65;;;3.00;;
63965;SDS011;50151;52.030;5.350;2023-04-03T23:06:00;6.30;;;2.83;;
63965;SDS011;50151;52.030;5.350;2023-04-03T23:08:29;8.35;;;2.80;;
63965;SDS011;50151;52.030;5.350;2023-04-03T23:10:57;7.28;;;2.95;;
63965;SDS011;50151;52.030;5.350;2023-04-03T23:13:24;7.72;;;2.95;;
63965;SDS011;50151;52.030;5.350;2023-04-03T23:15:55;6.63;;;3.10;;
63965;SDS011;50151;52.030;5.350;2023-04-03T23:18:24;8.13;;;3.13;;
63965;SDS011;50151;52.030;5.350;2023-04-03T23:20:51;6.30;;;2.60;;
63965;SDS011;50151;52.030;5.350;2023-04-03T23:23:20;5.35;;;2.72;;
63965;SDS011;50151;52.030;5.350;2023-04-03T23:25:54;5.22;;;2.65;;
63965;SDS011;50151;52.030;5.350;2023-04-03T23:30:49;6.38;;;2.60;;
63965;SDS011;50151;52.030;5.350;2023-04-03T23:33:22;5.47;;;2.67;;
63965;SDS011;50151;52.030;5.350;2023-04-03T23:35:48;6.05;;;2.65;;
63965;SDS011;50151;52.030;5.350;2023-04-03T23:38:17;7.28;;;2.85;;
63965;SDS011;50151;52.030;5.350;2023-04-03T23:40:44;4.60;;;2.47;;
63965;SDS011;50151;52.030;5.350;2023-04-03T23:43:11;6.05;;;2.67;;
63965;SDS011;50151;52.030;5.350;2023-04-03T23:45:38;4.63;;;2.40;;
63965;SDS011;50151;52.030;5.350;2023-04-03T23:48:05;5.75;;;2.63;;
63965;SDS011;50151;52.030;5.350;2023-04-03T23:50:31;5.60;;;2.70;;
63965;SDS011;50151;52.030;5.350;2023-04-03T23:52:58;5.88;;;2.70;;
63965;SDS011;50151;52.030;5.350;2023-04-03T23:55:25;5.13;;;2.60;;
63965;SDS011;50151;52.030;5.350;2023-04-03T23:57:52;5.40;;;2.75;;
